sensor_id;sensor_type;location;lat;lon;timestamp;pressure;altitude;pressure_sealevel;temperature;humidity
22964;BME280;11648;49.306;6.934;2023-08-01T00:00:10;97241.72;;;20.56;92.52
22964;BME280;11648;49.306;6.934;2023-08-01T00:02:38;97228.16;;;20.46;93.34
22964;BME280;11648;49.306;6.934;2023-08-01T00:05:05;97191.16;;;20.28;93.71
22964;BME280;11648;49.306;6.934;2023-08-01T00:07:32;97199.91;;;20.42;93.89
22964;BME280;11648;49.306;6.934;2023-08-01T00:10:03;97216.91;;;20.41;93.54
22964;BME280;11648;49.306;6.934;2023-08-01T00:12:31;97220.66;;;20.39;94.23
22964;BME280;11648;49.306;6.934;2023-08-01T00:14:58;97201.38;;;20.21;95.89
22964;BME280;11648;49.306;6.934;2023-08-01T00:17:25;97199.78;;;20.18;96.53
22964;BME280;11648;49.306;6.934;2023-08-01T00:19:52;97204.25;;;20.05;97.52
22964;BME280;11648;49.306;6.934;2023-08-01T00:22:18;97206.50;;;20.11;97.72
22964;BME280;11648;49.306;6.934;2023-08-01T00:24:45;97197.84;;;20.08;97.94
22964;BME280;11648;49.306;6.934;2023-08-01T00:27:14;97204.88;;;19.96;98.68
22964;BME280;11648;49.306;6.934;2023-08-01T00:29:41;97188.53;;;19.88;99.38
22964;BME280;11648;49.306;6.934;2023-08-01T00:32:08;97184.69;;;20.05;98.66
22964;BME280;11648;49.306;6.934;2023-08-01T00:34:35;97198.69;;;19.96;98.80
22964;BME280;11648;49.306;6.934;2023-08-01T00:37:01;97190.03;;;19.92;99.71
22964;BME280;11648;49.306;6.934;2023-08-01T00:39:28;97189.72;;;20.09;98.95
22964;BME280;11648;49.306;6.934;2023-08-01T00:41:55;97179.97;;;20.08;99.40
22964;BME280;11648;49.306;6.934;2023-08-01T00:44:22;97176.16;;;20.00;99.94
22964;BME280;11648;49.306;6.934;2023-08-01T00:46:49;97174.97;;;19.91;100.00
22964;BME280;11648;49.306;6.934;2023-08-01T00:49:16;97168.88;;;20.02;99.84
22964;BME280;11648;49.306;6.934;2023-08-01T00:51:43;97187.03;;;19.84;100.00
22964;BME280;11648;49.306;6.934;2023-08-01T00:54:10;97188.44;;;19.90;100.00
22964;BME280;11648;49.306;6.934;2023-08-01T00:56:37;97182.25;;;20.14;99.33
22964;BME280;11648;49.306;6.934;2023-08-01T00:59:05;97189.72;;;20.09;99.71
22964;BME280;11648;49.306;6.934;2023-08-01T01:01:31;97199.03;;;20.04;99.98
22964;BME280;11648;49.306;6.934;2023-08-01T01:03:58;97203.50;;;20.16;99.67
22964;BME280;11648;49.306;6.934;2023-08-01T01:06:41;97194.63;;;20.03;99.92
22964;BME280;11648;49.306;6.934;2023-08-01T01:09:16;97184.94;;;20.14;99.57
22964;BME280;11648;49.306;6.934;2023-08-01T01:11:44;97181.25;;;20.15;100.00
22964;BME280;11648;49.306;6.934;2023-08-01T01:14:11;97160.53;;;20.19;100.00
22964;BME280;11648;49.306;6.934;2023-08-01T01:16:38;97160.13;;;20.38;98.63
22964;BME280;11648;49.306;6.934;2023-08-01T01:19:07;97147.53;;;20.14;100.00
22964;BME280;11648;49.306;6.934;2023-08-01T01:21:35;97141.09;;;20.17;99.57
22964;BME280;11648;49.306;6.934;2023-08-01T01:24:04;97146.09;;;20.09;99.64
22964;BME280;11648;49.306;6.934;2023-08-01T01:26:33;97150.69;;;20.19;99.12
22964;BME280;11648;49.306;6.934;2023-08-01T01:29:02;97148.16;;;20.18;98.63
22964;BME280;11648;49.306;6.934;2023-08-01T01:31:30;97137.25;;;19.96;100.00
22964;BME280;11648;49.306;6.934;2023-08-01T01:33:58;97138.97;;;20.09;100.00
22964;BME280;11648;49.306;6.934;2023-08-01T01:36:25;97134.78;;;20.18;99.37
22964;BME280;11648;49.306;6.934;2023-08-01T01:38:52;97144.53;;;20.32;98.26
22964;BME280;11648;49.306;6.934;2023-08-01T01:41:19;97140.16;;;20.31;98.72
22964;BME280;11648;49.306;6.934;2023-08-01T01:43:45;97121.34;;;20.32;98.68
22964;BME280;11648;49.306;6.934;2023-08-01T01:46:12;97105.41;;;20.31;98.70
22964;BME280;11648;49.306;6.934;2023-08-01T01:48:39;97092.69;;;20.34;98.66
22964;BME280;11648;49.306;6.934;2023-08-01T01:51:05;97053.66;;;20.32;99.13
22964;BME280;11648;49.306;6.934;2023-08-01T01:53:32;97073.25;;;20.32;99.28
22964;BME280;11648;49.306;6.934;2023-08-01T01:55:59;97083.47;;;20.38;99.27
22964;BME280;11648;49.306;6.934;2023-08-01T01:58:26;97091.50;;;20.38;99.33
22964;BME280;11648;49.306;6.934;2023-08-01T02:00:52;97108.81;;;20.45;99.11
22964;BME280;11648;49.306;6.934;2023-08-01T02:03:19;97100.28;;;20.40;98.97
22964;BME280;11648;49.306;6.934;2023-08-01T02:05:46;97113.50;;;20.54;97.55
22964;BME280;11648;49.306;6.934;2023-08-01T02:08:13;97123.44;;;20.52;97.58
22964;BME280;11648;49.306;6.934;2023-08-01T02:10:40;97108.66;;;20.59;96.70
22964;BME280;11648;49.306;6.934;2023-08-01T02:13:06;97110.69;;;20.56;96.83
22964;BME280;11648;49.306;6.934;2023-08-01T02:15:36;97106.25;;;20.44;97.90
22964;BME280;11648;49.306;6.934;2023-08-01T02:18:03;97112.00;;;20.50;97.80
22964;BME280;11648;49.306;6.934;2023-08-01T02:20:29;97098.41;;;20.53;97.04
22964;BME280;11648;49.306;6.934;2023-08-01T02:22:56;97094.69;;;20.43;97.03
22964;BME280;11648;49.306;6.934;2023-08-01T02:25:23;97090.91;;;20.58;96.09
22964;BME280;11648;49.306;6.934;2023-08-01T02:27:50;97094.16;;;20.51;96.73
22964;BME280;11648;49.306;6.934;2023-08-01T02:30:17;97077.81;;;20.43;96.73
22964;BME280;11648;49.306;6.934;2023-08-01T02:32:43;97085.50;;;20.47;96.35
22964;BME280;11648;49.306;6.934;2023-08-01T02:35:11;97094.25;;;20.49;95.72
22964;BME280;11648;49.306;6.934;2023-08-01T02:37:37;97084.75;;;20.45;96.13
22964;BME280;11648;49.306;6.934;2023-08-01T02:40:05;97082.28;;;20.42;95.82
22964;BME280;11648;49.306;6.934;2023-08-01T02:42:34;97085.63;;;20.33;96.45
22964;BME280;11648;49.306;6.934;2023-08-01T02:45:01;97080.94;;;20.37;96.24
22964;BME280;11648;49.306;6.934;2023-08-01T02:47:27;97073.72;;;20.50;95.62
22964;BME280;11648;49.306;6.934;2023-08-01T02:49:54;97071.91;;;20.50;95.09
22964;BME280;11648;49.306;6.934;2023-08-01T02:52:21;97074.81;;;20.47;95.66
22964;BME280;11648;49.306;6.934;2023-08-01T02:54:48;97076.63;;;20.34;95.22
22964;BME280;11648;49.306;6.934;2023-08-01T02:57:15;97078.13;;;20.38;95.03
22964;BME280;11648;49.306;6.934;2023-08-01T02:59:42;97072.91;;;20.37;94.28
22964;BME280;11648;49.306;6.934;2023-08-01T03:02:08;97074.28;;;20.30;94.73
22964;BME280;11648;49.306;6.934;2023-08-01T03:04:35;97074.03;;;20.45;93.44
22964;BME280;11648;49.306;6.934;2023-08-01T03:07:13;97071.91;;;20.50;93.80
22964;BME280;11648;49.306;6.934;2023-08-01T03:09:40;97058.94;;;20.57;92.79
22964;BME280;11648;49.306;6.934;2023-08-01T03:12:06;97056.66;;;20.63;92.52
22964;BME280;11648;49.306;6.934;2023-08-01T03:14:33;97052.34;;;20.37;93.75
22964;BME280;11648;49.306;6.934;2023-08-01T03:17:00;97037.94;;;20.40;93.39
22964;BME280;11648;49.306;6.934;2023-08-01T03:19:27;97046.19;;;20.37;93.70
22964;BME280;11648;49.306;6.934;2023-08-01T03:21:53;97044.66;;;20.45;93.31
22964;BME280;11648;49.306;6.934;2023-08-01T03:24:22;97036.56;;;20.34;93.07
22964;BME280;11648;49.306;6.934;2023-08-01T03:26:48;97022.03;;;20.26;93.60
22964;BME280;11648;49.306;6.934;2023-08-01T03:29:15;97017.91;;;20.45;92.52
22964;BME280;11648;49.306;6.934;2023-08-01T03:31:42;97017.97;;;20.33;93.36
22964;BME280;11648;49.306;6.934;2023-08-01T03:34:09;97019.03;;;20.30;93.45
22964;BME280;11648;49.306;6.934;2023-08-01T03:36:35;97007.16;;;20.21;93.19
22964;BME280;11648;49.306;6.934;2023-08-01T03:39:03;97003.88;;;20.18;93.56
22964;BME280;11648;49.306;6.934;2023-08-01T03:41:31;96996.97;;;20.27;93.19
22964;BME280;11648;49.306;6.934;2023-08-01T03:43:59;97005.56;;;20.19;93.64
22964;BME280;11648;49.306;6.934;2023-08-01T03:46:26;97007.72;;;20.01;94.21
22964;BME280;11648;49.306;6.934;2023-08-01T03:48:52;97028.25;;;20.13;94.40
22964;BME280;11648;49.306;6.934;2023-08-01T03:51:19;97014.56;;;20.05;94.32
22964;BME280;11648;49.306;6.934;2023-08-01T03:53:47;97004.94;;;20.28;94.48
22964;BME280;11648;49.306;6.934;2023-08-01T03:56:29;97002.38;;;20.14;94.90
22964;BME280;11648;49.306;6.934;2023-08-01T03:58:56;97014.63;;;19.67;98.46
22964;BME280;11648;49.306;6.934;2023-08-01T04:01:23;96992.19;;;19.83;97.56
22964;BME280;11648;49.306;6.934;2023-08-01T04:03:49;96979.69;;;19.70;98.56
22964;BME280;11648;49.306;6.934;2023-08-01T04:06:16;96988.97;;;19.78;98.74
22964;BME280;11648;49.306;6.934;2023-08-01T04:08:43;96983.66;;;19.78;99.03
22964;BME280;11648;49.306;6.934;2023-08-01T04:11:09;96994.22;;;19.41;99.64
22964;BME280;11648;49.306;6.934;2023-08-01T04:13:38;96983.56;;;19.54;100.00
22964;BME280;11648;49.306;6.934;2023-08-01T04:16:04;96983.88;;;19.49;100.00
22964;BME280;11648;49.306;6.934;2023-08-01T04:18:31;96972.44;;;19.35;100.00
22964;BME280;11648;49.306;6.934;2023-08-01T04:20:58;96984.31;;;19.43;100.00
22964;BME280;11648;49.306;6.934;2023-08-01T04:23:25;96971.59;;;19.59;98.77
22964;BME280;11648;49.306;6.934;2023-08-01T04:25:51;96977.88;;;19.33;100.00
22964;BME280;11648;49.306;6.934;2023-08-01T04:28:18;96989.09;;;19.38;100.00
22964;BME280;11648;49.306;6.934;2023-08-01T04:30:49;96978.19;;;19.29;100.00
22964;BME280;11648;49.306;6.934;2023-08-01T04:33:16;96986.84;;;19.32;100.00
22964;BME280;11648;49.306;6.934;2023-08-01T04:35:43;96987.03;;;19.29;99.90
22964;BME280;11648;49.306;6.934;2023-08-01T04:38:13;96993.53;;;19.12;100.00
22964;BME280;11648;49.306;6.934;2023-08-01T04:40:40;96972.19;;;19.12;100.00
22964;BME280;11648;49.306;6.934;2023-08-01T04:43:07;96985.31;;;19.15;100.00
22964;BME280;11648;49.306;6.934;2023-08-01T04:45:33;96981.50;;;19.07;100.00
22964;BME280;11648;49.306;6.934;2023-08-01T04:48:00;96982.34;;;19.20;100.00
22964;BME280;11648;49.306;6.934;2023-08-01T04:50:27;96991.19;;;19.08;100.00
22964;BME280;11648;49.306;6.934;2023-08-01T04:52:54;96989.41;;;19.21;100.00
22964;BME280;11648;49.306;6.934;2023-08-01T04:55:20;96996.34;;;19.23;100.00
22964;BME280;11648;49.306;6.934;2023-08-01T04:57:47;96990.47;;;19.31;99.86
22964;BME280;11648;49.306;6.934;2023-08-01T05:00:14;96984.19;;;19.32;99.76
22964;BME280;11648;49.306;6.934;2023-08-01T05:02:41;96980.66;;;19.32;100.00
22964;BME280;11648;49.306;6.934;2023-08-01T05:05:08;96982.00;;;19.12;100.00
22964;BME280;11648;49.306;6.934;2023-08-01T05:07:34;96974.69;;;19.28;100.00
22964;BME280;11648;49.306;6.934;2023-08-01T05:10:01;96977.88;;;19.33;100.00
22964;BME280;11648;49.306;6.934;2023-08-01T05:12:28;96987.59;;;19.34;99.91
22964;BME280;11648;49.306;6.934;2023-08-01T05:14:55;96992.22;;;19.45;99.56
22964;BME280;11648;49.306;6.934;2023-08-01T05:17:21;96979.72;;;19.45;100.00
22964;BME280;11648;49.306;6.934;2023-08-01T05:19:48;96979.72;;;19.45;100.00
22964;BME280;11648;49.306;6.934;2023-08-01T05:22:15;96978.41;;;19.51;99.76
22964;BME280;11648;49.306;6.934;2023-08-01T05:24:42;96977.91;;;19.46;100.00
22964;BME280;11648;49.306;6.934;2023-08-01T05:27:09;96982.50;;;19.56;99.63
22964;BME280;11648;49.306;6.934;2023-08-01T05:29:35;96997.63;;;19.68;99.14
22964;BME280;11648;49.306;6.934;2023-08-01T05:32:03;96988.66;;;19.69;99.02
22964;BME280;11648;49.306;6.934;2023-08-01T05:34:30;96987.19;;;19.78;98.38
22964;BME280;11648;49.306;6.934;2023-08-01T05:36:56;97005.72;;;19.80;98.40
22964;BME280;11648;49.306;6.934;2023-08-01T05:39:23;97006.50;;;19.82;98.20
22964;BME280;11648;49.306;6.934;2023-08-01T05:41:50;97023.16;;;19.85;98.04
22964;BME280;11648;49.306;6.934;2023-08-01T05:44:17;97020.06;;;19.79;98.30
22964;BME280;11648;49.306;6.934;2023-08-01T05:46:44;97023.03;;;19.87;97.97
22964;BME280;11648;49.306;6.934;2023-08-01T05:49:11;97033.41;;;19.91;97.62
22964;BME280;11648;49.306;6.934;2023-08-01T05:51:37;97026.03;;;19.95;97.31
22964;BME280;11648;49.306;6.934;2023-08-01T05:54:04;97023.34;;;19.95;97.60
22964;BME280;11648;49.306;6.934;2023-08-01T05:56:31;97030.50;;;20.07;96.43
22964;BME280;11648;49.306;6.934;2023-08-01T05:58:58;97024.78;;;20.24;95.41
22964;BME280;11648;49.306;6.934;2023-08-01T06:01:24;97022.97;;;20.25;94.50
22964;BME280;11648;49.306;6.934;2023-08-01T06:03:51;97025.94;;;20.45;93.27
22964;BME280;11648;49.306;6.934;2023-08-01T06:06:18;97017.28;;;20.65;92.10
22964;BME280;11648;49.306;6.934;2023-08-01T06:08:45;97027.34;;;20.62;91.72
22964;BME280;11648;49.306;6.934;2023-08-01T06:11:12;97031.66;;;20.64;91.30
22964;BME280;11648;49.306;6.934;2023-08-01T06:13:38;97036.69;;;20.80;90.16
22964;BME280;11648;49.306;6.934;2023-08-01T06:16:05;97030.66;;;20.89;89.88
22964;BME280;11648;49.306;6.934;2023-08-01T06:18:32;97029.34;;;20.95;89.03
22964;BME280;11648;49.306;6.934;2023-08-01T06:20:59;97030.22;;;21.19;87.94
22964;BME280;11648;49.306;6.934;2023-08-01T06:23:25;97032.56;;;21.35;87.32
22964;BME280;11648;49.306;6.934;2023-08-01T06:25:52;97027.22;;;21.46;85.95
22964;BME280;11648;49.306;6.934;2023-08-01T06:28:19;97036.75;;;21.50;85.82
22964;BME280;11648;49.306;6.934;2023-08-01T06:30:45;97030.66;;;21.48;85.20
22964;BME280;11648;49.306;6.934;2023-08-01T06:33:12;97042.19;;;21.48;84.98
22964;BME280;11648;49.306;6.934;2023-08-01T06:35:39;97035.63;;;21.52;84.88
22964;BME280;11648;49.306;6.934;2023-08-01T06:38:06;97038.47;;;21.62;83.81
22964;BME280;11648;49.306;6.934;2023-08-01T06:40:32;97028.84;;;21.71;83.17
22964;BME280;11648;49.306;6.934;2023-08-01T06:42:59;97039.72;;;21.69;82.87
22964;BME280;11648;49.306;6.934;2023-08-01T06:45:26;97038.13;;;21.89;82.28
22964;BME280;11648;49.306;6.934;2023-08-01T06:47:52;97043.63;;;22.32;80.96
22964;BME280;11648;49.306;6.934;2023-08-01T06:50:19;97034.78;;;22.85;77.88
22964;BME280;11648;49.306;6.934;2023-08-01T06:52:46;97041.78;;;23.61;74.18
22964;BME280;11648;49.306;6.934;2023-08-01T06:55:13;97045.28;;;24.03;71.78
22964;BME280;11648;49.306;6.934;2023-08-01T06:57:40;97055.09;;;24.53;69.49
22964;BME280;11648;49.306;6.934;2023-08-01T07:00:07;97049.72;;;24.93;66.47
22964;BME280;11648;49.306;6.934;2023-08-01T07:02:34;97057.00;;;25.22;64.83
22964;BME280;11648;49.306;6.934;2023-08-01T07:05:00;97059.13;;;25.57;63.67
22964;BME280;11648;49.306;6.934;2023-08-01T07:07:27;97058.91;;;25.87;61.98
22964;BME280;11648;49.306;6.934;2023-08-01T07:09:54;97060.56;;;27.08;58.77
22964;BME280;11648;49.306;6.934;2023-08-01T07:12:21;97074.75;;;26.92;58.01
22964;BME280;11648;49.306;6.934;2023-08-01T07:14:47;97072.19;;;26.91;56.96
22964;BME280;11648;49.306;6.934;2023-08-01T07:17:14;97079.16;;;26.29;58.46
22964;BME280;11648;49.306;6.934;2023-08-01T07:19:41;97084.06;;;25.59;60.85
22964;BME280;11648;49.306;6.934;2023-08-01T07:22:08;97089.19;;;24.74;63.57
22964;BME280;11648;49.306;6.934;2023-08-01T07:24:34;97102.53;;;24.45;64.56
22964;BME280;11648;49.306;6.934;2023-08-01T07:27:01;97102.22;;;23.67;66.07
22964;BME280;11648;49.306;6.934;2023-08-01T07:29:28;97105.06;;;23.54;67.46
22964;BME280;11648;49.306;6.934;2023-08-01T07:31:55;97111.56;;;23.40;66.59
22964;BME280;11648;49.306;6.934;2023-08-01T07:34:21;97108.50;;;23.56;66.61
22964;BME280;11648;49.306;6.934;2023-08-01T07:36:49;97122.25;;;24.04;66.61
22964;BME280;11648;49.306;6.934;2023-08-01T07:39:16;97121.81;;;23.99;65.97
22964;BME280;11648;49.306;6.934;2023-08-01T07:41:43;97126.56;;;23.54;67.53
22964;BME280;11648;49.306;6.934;2023-08-01T07:44:10;97131.00;;;23.33;67.82
22964;BME280;11648;49.306;6.934;2023-08-01T07:46:37;97148.47;;;23.38;68.33
22964;BME280;11648;49.306;6.934;2023-08-01T07:49:04;97148.97;;;23.21;68.39
22964;BME280;11648;49.306;6.934;2023-08-01T07:51:31;97149.25;;;23.07;69.02
22964;BME280;11648;49.306;6.934;2023-08-01T07:53:57;97153.59;;;23.30;68.29
22964;BME280;11648;49.306;6.934;2023-08-01T07:56:24;97162.88;;;23.37;68.24
22964;BME280;11648;49.306;6.934;2023-08-01T07:58:51;97153.31;;;23.55;65.22
22964;BME280;11648;49.306;6.934;2023-08-01T08:01:18;97168.00;;;23.29;64.10
22964;BME280;11648;49.306;6.934;2023-08-01T08:03:45;97169.22;;;23.68;64.03
22964;BME280;11648;49.306;6.934;2023-08-01T08:06:11;97164.13;;;23.86;62.90
22964;BME280;11648;49.306;6.934;2023-08-01T08:08:38;97164.13;;;23.86;62.60
22964;BME280;11648;49.306;6.934;2023-08-01T08:11:05;97161.81;;;24.34;60.47
22964;BME280;11648;49.306;6.934;2023-08-01T08:13:32;97161.19;;;25.40;57.34
22964;BME280;11648;49.306;6.934;2023-08-01T08:15:58;97161.97;;;25.81;55.96
22964;BME280;11648;49.306;6.934;2023-08-01T08:18:25;97155.94;;;26.35;54.46
22964;BME280;11648;49.306;6.934;2023-08-01T08:20:53;97165.78;;;25.97;54.94
22964;BME280;11648;49.306;6.934;2023-08-01T08:23:19;97160.66;;;26.23;53.89
22964;BME280;11648;49.306;6.934;2023-08-01T08:25:46;97163.81;;;27.02;52.70
22964;BME280;11648;49.306;6.934;2023-08-01T08:28:13;97171.28;;;26.90;52.02
22964;BME280;11648;49.306;6.934;2023-08-01T08:30:41;97174.72;;;26.27;52.93
22964;BME280;11648;49.306;6.934;2023-08-01T08:33:07;97194.22;;;25.33;53.86
22964;BME280;11648;49.306;6.934;2023-08-01T08:35:37;97189.16;;;25.39;53.39
22964;BME280;11648;49.306;6.934;2023-08-01T08:38:04;97192.75;;;25.59;53.84
22964;BME280;11648;49.306;6.934;2023-08-01T08:40:33;97186.22;;;25.90;51.42
22964;BME280;11648;49.306;6.934;2023-08-01T08:43:02;97183.06;;;26.80;50.59
22964;BME280;11648;49.306;6.934;2023-08-01T08:45:34;97169.50;;;27.89;46.90
22964;BME280;11648;49.306;6.934;2023-08-01T08:48:09;97171.63;;;28.90;46.26
22964;BME280;11648;49.306;6.934;2023-08-01T08:50:39;97177.84;;;28.13;45.59
22964;BME280;11648;49.306;6.934;2023-08-01T08:53:06;97174.06;;;27.53;45.99
22964;BME280;11648;49.306;6.934;2023-08-01T08:55:39;97184.56;;;27.74;46.28
22964;BME280;11648;49.306;6.934;2023-08-01T08:58:07;97178.34;;;28.52;43.82
22964;BME280;11648;49.306;6.934;2023-08-01T09:00:38;97175.66;;;28.86;43.70
22964;BME280;11648;49.306;6.934;2023-08-01T09:03:05;97170.03;;;29.55;43.41
22964;BME280;11648;49.306;6.934;2023-08-01T09:08:20;97171.72;;;28.72;42.00
22964;BME280;11648;49.306;6.934;2023-08-01T09:10:48;97171.09;;;28.86;41.94
22964;BME280;11648;49.306;6.934;2023-08-01T09:13:15;97168.31;;;29.46;41.25
22964;BME280;11648;49.306;6.934;2023-08-01T09:15:42;97175.94;;;29.34;41.04
22964;BME280;11648;49.306;6.934;2023-08-01T09:18:10;97173.75;;;28.53;42.45
22964;BME280;11648;49.306;6.934;2023-08-01T09:20:56;97174.03;;;28.06;43.18
22964;BME280;11648;49.306;6.934;2023-08-01T09:23:28;97185.63;;;28.08;45.02
22964;BME280;11648;49.306;6.934;2023-08-01T09:25:57;97199.44;;;27.15;45.78
22964;BME280;11648;49.306;6.934;2023-08-01T09:28:26;97201.28;;;26.78;46.45
22964;BME280;11648;49.306;6.934;2023-08-01T09:30:55;97213.94;;;26.21;47.83
22964;BME280;11648;49.306;6.934;2023-08-01T09:33:23;97220.44;;;25.90;48.62
22964;BME280;11648;49.306;6.934;2023-08-01T09:35:51;97218.72;;;25.89;47.76
22964;BME280;11648;49.306;6.934;2023-08-01T09:38:18;97215.16;;;25.98;47.75
22964;BME280;11648;49.306;6.934;2023-08-01T09:40:45;97226.94;;;25.87;48.41
22964;BME280;11648;49.306;6.934;2023-08-01T09:43:13;97212.34;;;26.28;47.83
22964;BME280;11648;49.306;6.934;2023-08-01T09:45:50;97222.41;;;26.45;47.26
22964;BME280;11648;49.306;6.934;2023-08-01T09:48:23;97211.91;;;27.53;45.29
22964;BME280;11648;49.306;6.934;2023-08-01T09:50:50;97205.13;;;27.84;44.16
22964;BME280;11648;49.306;6.934;2023-08-01T09:53:17;97196.47;;;28.34;42.22
22964;BME280;11648;49.306;6.934;2023-08-01T09:55:45;97193.13;;;29.75;39.98
22964;BME280;11648;49.306;6.934;2023-08-01T09:58:13;97199.69;;;29.57;40.08
22964;BME280;11648;49.306;6.934;2023-08-01T10:00:40;97203.19;;;28.48;41.41
22964;BME280;11648;49.306;6.934;2023-08-01T10:03:07;97224.56;;;27.53;42.68
22964;BME280;11648;49.306;6.934;2023-08-01T10:05:35;97233.84;;;27.23;43.91
22964;BME280;11648;49.306;6.934;2023-08-01T10:08:05;97235.25;;;27.17;44.40
22964;BME280;11648;49.306;6.934;2023-08-01T10:10:32;97246.88;;;27.00;44.76
22964;BME280;11648;49.306;6.934;2023-08-01T10:13:00;97217.69;;;29.24;41.27
22964;BME280;11648;49.306;6.934;2023-08-01T10:15:28;97187.22;;;30.85;35.37
22964;BME280;11648;49.306;6.934;2023-08-01T10:17:55;97168.00;;;31.95;34.05
22964;BME280;11648;49.306;6.934;2023-08-01T10:20:23;97184.69;;;31.30;35.37
22964;BME280;11648;49.306;6.934;2023-08-01T10:22:51;97174.03;;;33.03;33.99
22964;BME280;11648;49.306;6.934;2023-08-01T10:25:18;97135.72;;;35.71;29.06
22964;BME280;11648;49.306;6.934;2023-08-01T10:28:03;97149.47;;;34.74;29.79
22964;BME280;11648;49.306;6.934;2023-08-01T10:30:30;97165.94;;;32.95;32.27
22964;BME280;11648;49.306;6.934;2023-08-01T10:32:59;97195.56;;;31.39;34.78
22964;BME280;11648;49.306;6.934;2023-08-01T10:35:36;97206.19;;;29.80;36.81
22964;BME280;11648;49.306;6.934;2023-08-01T10:38:08;97215.13;;;28.19;39.65
22964;BME280;11648;49.306;6.934;2023-08-01T10:40:40;97230.75;;;27.63;41.37
22964;BME280;11648;49.306;6.934;2023-08-01T10:43:21;97234.19;;;27.82;41.55
22964;BME280;11648;49.306;6.934;2023-08-01T10:45:48;97224.59;;;28.59;40.40
22964;BME280;11648;49.306;6.934;2023-08-01T10:48:26;97207.47;;;30.34;37.42
22964;BME280;11648;49.306;6.934;2023-08-01T10:50:56;97195.22;;;33.81;33.27
22964;BME280;11648;49.306;6.934;2023-08-01T10:53:23;97153.56;;;36.67;27.79
22964;BME280;11648;49.306;6.934;2023-08-01T10:55:50;97146.88;;;37.84;26.89
22964;BME280;11648;49.306;6.934;2023-08-01T10:58:16;97153.28;;;37.07;27.03
22964;BME280;11648;49.306;6.934;2023-08-01T11:00:43;97165.94;;;37.15;27.34
22964;BME280;11648;49.306;6.934;2023-08-01T11:03:10;97154.25;;;38.28;25.26
22964;BME280;11648;49.306;6.934;2023-08-01T11:05:37;97146.69;;;38.73;24.68
22964;BME280;11648;49.306;6.934;2023-08-01T11:08:04;97156.69;;;36.83;26.77
22964;BME280;11648;49.306;6.934;2023-08-01T11:10:32;97163.41;;;34.30;29.39
22964;BME280;11648;49.306;6.934;2023-08-01T11:12:59;97189.25;;;32.22;32.33
22964;BME280;11648;49.306;6.934;2023-08-01T11:15:26;97209.19;;;31.30;34.04
22964;BME280;11648;49.306;6.934;2023-08-01T11:17:54;97224.53;;;31.15;35.00
22964;BME280;11648;49.306;6.934;2023-08-01T11:20:23;97228.50;;;30.24;36.33
22964;BME280;11648;49.306;6.934;2023-08-01T11:22:56;97236.25;;;28.77;38.71
22964;BME280;11648;49.306;6.934;2023-08-01T11:25:36;97237.84;;;29.55;37.71
22964;BME280;11648;49.306;6.934;2023-08-01T11:28:09;97211.19;;;32.06;33.44
22964;BME280;11648;49.306;6.934;2023-08-01T11:30:36;97200.56;;;34.24;30.56
22964;BME280;11648;49.306;6.934;2023-08-01T11:33:20;97180.97;;;36.86;27.19
22964;BME280;11648;49.306;6.934;2023-08-01T11:35:52;97163.75;;;39.07;24.85
22964;BME280;11648;49.306;6.934;2023-08-01T11:38:27;97162.66;;;39.98;22.86
22964;BME280;11648;49.306;6.934;2023-08-01T11:41:04;97163.56;;;40.52;21.92
22964;BME280;11648;49.306;6.934;2023-08-01T11:43:41;97164.13;;;41.30;21.64
22964;BME280;11648;49.306;6.934;2023-08-01T11:46:08;97172.19;;;39.84;22.36
22964;BME280;11648;49.306;6.934;2023-08-01T11:48:36;97171.91;;;38.14;24.44
22964;BME280;11648;49.306;6.934;2023-08-01T11:51:03;97198.06;;;35.28;27.96
22964;BME280;11648;49.306;6.934;2023-08-01T11:53:30;97201.78;;;34.92;29.45
22964;BME280;11648;49.306;6.934;2023-08-01T11:56:05;97195.13;;;35.01;28.51
22964;BME280;11648;49.306;6.934;2023-08-01T11:58:34;97195.00;;;33.97;28.97
22964;BME280;11648;49.306;6.934;2023-08-01T12:01:06;97210.19;;;31.99;31.06
22964;BME280;11648;49.306;6.934;2023-08-01T12:03:45;97225.25;;;30.28;33.83
22964;BME280;11648;49.306;6.934;2023-08-01T12:06:13;97232.28;;;29.65;35.03
22964;BME280;11648;49.306;6.934;2023-08-01T12:08:44;97237.06;;;29.03;36.42
22964;BME280;11648;49.306;6.934;2023-08-01T12:11:24;97246.66;;;29.23;37.25
22964;BME280;11648;49.306;6.934;2023-08-01T12:14:09;97246.63;;;28.89;36.69
22964;BME280;11648;49.306;6.934;2023-08-01T12:16:37;97252.78;;;28.74;37.97
22964;BME280;11648;49.306;6.934;2023-08-01T12:19:05;97253.06;;;28.27;39.00
22964;BME280;11648;49.306;6.934;2023-08-01T12:21:33;97256.16;;;27.79;38.93
22964;BME280;11648;49.306;6.934;2023-08-01T12:24:00;97257.00;;;27.53;39.54
22964;BME280;11648;49.306;6.934;2023-08-01T12:26:28;97270.38;;;27.17;39.81
22964;BME280;11648;49.306;6.934;2023-08-01T12:28:55;97250.09;;;28.74;37.68
22964;BME280;11648;49.306;6.934;2023-08-01T12:31:22;97248.25;;;29.76;36.64
22964;BME280;11648;49.306;6.934;2023-08-01T12:33:50;97237.31;;;30.18;35.68
22964;BME280;11648;49.306;6.934;2023-08-01T12:36:17;97238.16;;;29.94;35.66
22964;BME280;11648;49.306;6.934;2023-08-01T12:38:43;97244.34;;;29.03;36.33
22964;BME280;11648;49.306;6.934;2023-08-01T12:41:10;97243.78;;;28.91;36.85
22964;BME280;11648;49.306;6.934;2023-08-01T12:43:37;97254.13;;;28.95;36.55
22964;BME280;11648;49.306;6.934;2023-08-01T12:46:04;97246.66;;;29.23;36.47
22964;BME280;11648;49.306;6.934;2023-08-01T12:48:30;97247.53;;;29.66;36.00
22964;BME280;11648;49.306;6.934;2023-08-01T12:50:57;97238.75;;;29.80;34.95
22964;BME280;11648;49.306;6.934;2023-08-01T12:53:24;97231.03;;;30.09;34.39
22964;BME280;11648;49.306;6.934;2023-08-01T12:55:56;97232.63;;;29.70;34.81
22964;BME280;11648;49.306;6.934;2023-08-01T12:58:23;97250.97;;;29.76;35.63
22964;BME280;11648;49.306;6.934;2023-08-01T13:00:49;97232.19;;;29.90;35.44
22964;BME280;11648;49.306;6.934;2023-08-01T13:03:16;97226.94;;;29.97;35.88
22964;BME280;11648;49.306;6.934;2023-08-01T13:05:43;97230.63;;;29.80;34.93